Time;durP1;ratioP1;P1;durP2;ratioP2;P2;SDS_P1;SDS_P2;PMS_P1;PMS_P2;Temp;Humidity;BMP_temperature;BMP_pressure;BME280_temperature;BME280_humidity;BME280_pressure;Samples;Min_cycle;Max_cycle;Signal;HPM_P1;HPM_P2
2021/01/24 00:00:44;;;;;;;48.72;22.92;;;;;;;;;;5039629;28;20035;-53
2021/01/24 00:03:10;;;;;;;46.67;21.50;;;;;;;;;;5043853;28;20029;-51
2021/01/24 00:05:36;;;;;;;34.22;17.92;;;;;;;;;;5034346;28;20034;-51
2021/01/24 00:08:02;;;;;;;30.98;16.42;;;;;;;;;;5046827;28;20036;-49
2021/01/24 00:10:28;;;;;;;28.27;16.80;;;;;;;;;;5042213;28;20051;-49
2021/01/24 00:12:54;;;;;;;36.60;18.33;;;;;;;;;;5042878;28;20404;-52
2021/01/24 00:15:20;;;;;;;29.50;15.98;;;;;;;;;;5045753;28;20868;-52
2021/01/24 00:17:46;;;;;;;31.15;16.92;;;;;;;;;;5041915;28;20029;-52
2021/01/24 00:20:12;;;;;;;30.95;16.45;;;;;;;;;;5042511;28;20048;-50
2021/01/24 00:22:38;;;;;;;30.67;16.58;;;;;;;;;;5033998;28;20036;-50
2021/01/24 00:25:04;;;;;;;36.95;19.00;;;;;;;;;;5040819;28;20032;-50
2021/01/24 00:27:30;;;;;;;31.13;16.85;;;;;;;;;;5037536;28;20120;-50
2021/01/24 00:29:56;;;;;;;26.88;15.90;;;;;;;;;;5044157;28;20044;-49
2021/01/24 00:32:22;;;;;;;28.95;15.95;;;;;;;;;;5043447;28;20483;-50
2021/01/24 00:34:48;;;;;;;42.38;20.13;;;;;;;;;;5036340;28;20477;-49
2021/01/24 00:37:14;;;;;;;41.55;20.48;;;;;;;;;;5035809;28;20025;-51
2021/01/24 00:39:40;;;;;;;30.63;16.17;;;;;;;;;;5034817;28;20029;-49
2021/01/24 00:42:06;;;;;;;26.83;15.73;;;;;;;;;;5045250;28;20036;-54
2021/01/24 00:44:32;;;;;;;27.15;16.67;;;;;;;;;;5044953;28;20025;-51
2021/01/24 00:46:58;;;;;;;31.30;17.08;;;;;;;;;;5045280;28;20540;-51
2021/01/24 00:49:25;;;;;;;31.08;15.82;;;;;;;;;;5041036;28;20111;-53
2021/01/24 00:51:51;;;;;;;27.48;14.90;;;;;;;;;;5045585;28;20052;-49
2021/01/24 00:54:17;;;;;;;28.90;15.65;;;;;;;;;;5044952;28;20536;-49
2021/01/24 00:56:42;;;;;;;29.45;16.67;;;;;;;;;;5034578;28;20156;-50
2021/01/24 00:59:08;;;;;;;36.17;17.30;;;;;;;;;;5035451;28;20372;-52
2021/01/24 01:01:34;;;;;;;35.83;18.58;;;;;;;;;;5045283;28;20522;-50
2021/01/24 01:04:00;;;;;;;29.25;15.02;;;;;;;;;;5045956;28;20516;-50
2021/01/24 01:06:26;;;;;;;29.85;15.52;;;;;;;;;;5045896;28;20489;-50
2021/01/24 01:08:52;;;;;;;39.88;20.45;;;;;;;;;;5049490;28;20110;-51
2021/01/24 01:11:18;;;;;;;32.22;16.08;;;;;;;;;;5048195;28;20037;-49
2021/01/24 01:13:44;;;;;;;28.00;14.57;;;;;;;;;;5048907;28;20024;-51
2021/01/24 01:16:10;;;;;;;28.60;14.38;;;;;;;;;;5048588;28;20041;-51
2021/01/24 01:18:36;;;;;;;30.38;16.10;;;;;;;;;;5046865;28;20027;-52
2021/01/24 01:21:02;;;;;;;27.52;14.70;;;;;;;;;;5047326;28;20031;-51
2021/01/24 01:23:28;;;;;;;26.20;14.85;;;;;;;;;;5040232;28;20021;-51
2021/01/24 01:25:54;;;;;;;28.40;16.13;;;;;;;;;;5048258;28;20036;-51
2021/01/24 01:28:20;;;;;;;27.60;13.52;;;;;;;;;;5043771;28;20108;-54
2021/01/24 01:30:46;;;;;;;31.52;14.95;;;;;;;;;;5045242;28;20691;-53
2021/01/24 01:33:12;;;;;;;27.33;14.25;;;;;;;;;;5044398;28;20060;-49
2021/01/24 01:35:38;;;;;;;26.10;14.93;;;;;;;;;;5049828;28;20036;-52
2021/01/24 01:38:04;;;;;;;25.38;13.65;;;;;;;;;;5048941;28;20044;-51
2021/01/24 01:40:30;;;;;;;26.55;15.20;;;;;;;;;;5049117;28;20028;-50
2021/01/24 01:42:56;;;;;;;25.38;14.30;;;;;;;;;;5049252;28;20037;-51
2021/01/24 01:45:22;;;;;;;24.00;13.88;;;;;;;;;;5050005;28;20737;-51
2021/01/24 01:47:48;;;;;;;28.23;13.57;;;;;;;;;;5049557;28;20021;-51
2021/01/24 01:50:17;;;;;;;25.55;13.57;;;;;;;;;;5049641;28;20851;-53
2021/01/24 01:52:43;;;;;;;28.33;13.98;;;;;;;;;;5049462;28;20063;-49
2021/01/24 01:55:09;;;;;;;24.10;12.98;;;;;;;;;;5047746;28;20599;-50
2021/01/24 01:57:35;;;;;;;28.15;13.52;;;;;;;;;;5032507;28;20355;-52
2021/01/24 02:00:00;;;;;;;26.10;13.63;;;;;;;;;;5049802;28;20021;-49
2021/01/24 02:02:40;;;;;;;25.95;13.93;;;;;;;;;;5042396;28;20029;-53
2021/01/24 02:05:19;;;;;;;24.20;13.27;;;;;;;;;;5049170;28;20031;-50
2021/01/24 02:07:56;;;;;;;40.92;22.55;;;;;;;;;;5049489;28;20037;-52
2021/01/24 02:10:29;;;;;;;29.85;15.13;;;;;;;;;;5048602;28;20029;-50
2021/01/24 02:13:02;;;;;;;26.08;14.07;;;;;;;;;;5041141;28;20140;-51
2021/01/24 02:15:30;;;;;;;24.42;13.38;;;;;;;;;;5048381;28;20037;-51
2021/01/24 02:18:00;;;;;;;23.98;13.48;;;;;;;;;;5049105;28;20029;-49
2021/01/24 02:20:29;;;;;;;25.48;14.23;;;;;;;;;;5049295;28;20588;-50
2021/01/24 02:22:55;;;;;;;24.33;14.15;;;;;;;;;;5048365;28;20044;-49
2021/01/24 02:25:26;;;;;;;25.08;13.68;;;;;;;;;;5049217;28;20032;-49
2021/01/24 02:27:59;;;;;;;24.48;13.82;;;;;;;;;;5049234;28;20025;-52
2021/01/24 02:30:28;;;;;;;25.63;13.65;;;;;;;;;;5049543;28;20698;-49
2021/01/24 02:33:05;;;;;;;29.42;14.88;;;;;;;;;;5038439;28;20413;-53
2021/01/24 02:35:32;;;;;;;28.55;14.48;;;;;;;;;;5036267;28;20052;-50
2021/01/24 02:38:01;;;;;;;25.63;13.73;;;;;;;;;;5048279;28;20465;-51
2021/01/24 02:40:27;;;;;;;25.10;13.90;;;;;;;;;;5048536;28;20021;-49
2021/01/24 02:42:55;;;;;;;25.27;14.27;;;;;;;;;;5048693;28;20029;-49
2021/01/24 02:45:21;;;;;;;25.30;14.38;;;;;;;;;;5047771;28;20215;-49
2021/01/24 02:47:48;;;;;;;26.05;11.93;;;;;;;;;;5047319;28;20512;-50
2021/01/24 02:50:14;;;;;;;25.45;14.13;;;;;;;;;;5049111;28;20033;-50
2021/01/24 02:52:41;;;;;;;24.92;13.38;;;;;;;;;;5048088;28;20477;-50
2021/01/24 02:55:08;;;;;;;27.45;14.25;;;;;;;;;;5046558;28;20025;-49
2021/01/24 02:57:34;;;;;;;25.17;13.20;;;;;;;;;;5036688;28;20017;-49
2021/01/24 03:00:00;;;;;;;25.25;12.70;;;;;;;;;;5048040;28;20082;-49
2021/01/24 03:02:26;;;;;;;26.25;13.07;;;;;;;;;;5046561;28;20668;-53
2021/01/24 03:04:52;;;;;;;24.63;12.23;;;;;;;;;;5047480;28;20469;-49
2021/01/24 03:07:18;;;;;;;26.48;14.68;;;;;;;;;;5047652;28;20464;-52
2021/01/24 03:09:44;;;;;;;26.23;13.70;;;;;;;;;;5047863;28;20051;-49
2021/01/24 03:12:11;;;;;;;24.55;14.32;;;;;;;;;;5047397;28;20051;-49
2021/01/24 03:14:38;;;;;;;28.02;14.88;;;;;;;;;;5047308;28;20031;-52
2021/01/24 03:17:04;;;;;;;24.95;13.68;;;;;;;;;;5047185;28;20029;-52
2021/01/24 03:19:31;;;;;;;25.92;13.82;;;;;;;;;;5047623;28;20020;-52
2021/01/24 03:21:57;;;;;;;27.58;14.32;;;;;;;;;;5047596;28;20534;-51
2021/01/24 03:24:24;;;;;;;23.85;13.40;;;;;;;;;;5047482;28;20460;-49
2021/01/24 03:26:51;;;;;;;25.23;13.73;;;;;;;;;;5046031;28;20357;-51
2021/01/24 03:29:17;;;;;;;27.13;14.88;;;;;;;;;;5047253;28;20032;-51
2021/01/24 03:31:44;;;;;;;26.92;14.32;;;;;;;;;;5044794;28;20487;-52
2021/01/24 03:34:18;;;;;;;26.38;15.18;;;;;;;;;;5045636;28;20128;-49
2021/01/24 03:36:45;;;;;;;27.02;14.00;;;;;;;;;;5046940;28;20025;-49
2021/01/24 03:39:11;;;;;;;27.42;14.07;;;;;;;;;;5046906;28;20040;-50
2021/01/24 03:41:37;;;;;;;25.40;14.30;;;;;;;;;;5047146;28;20043;-52
2021/01/24 03:44:03;;;;;;;25.77;13.90;;;;;;;;;;5047167;28;20444;-53
2021/01/24 03:46:30;;;;;;;26.23;14.15;;;;;;;;;;5046531;28;20035;-49
2021/01/24 03:48:55;;;;;;;28.23;14.95;;;;;;;;;;5046559;28;20033;-49
2021/01/24 03:51:21;;;;;;;26.42;14.65;;;;;;;;;;5046021;28;20021;-49
2021/01/24 03:53:47;;;;;;;25.52;13.45;;;;;;;;;;5046667;28;20031;-49
2021/01/24 03:56:13;;;;;;;23.23;13.07;;;;;;;;;;5038346;28;20067;-52
2021/01/24 03:58:40;;;;;;;25.52;13.45;;;;;;;;;;5037155;28;20123;-51
2021/01/24 04:01:06;;;;;;;23.15;12.93;;;;;;;;;;5037427;28;20057;-49
2021/01/24 04:03:32;;;;;;;27.35;14.20;;;;;;;;;;5031616;28;21704;-49
2021/01/24 04:05:58;;;;;;;26.80;14.38;;;;;;;;;;5038577;28;20866;-50
2021/01/24 04:08:24;;;;;;;27.42;14.40;;;;;;;;;;5038991;28;20435;-50
2021/01/24 04:10:50;;;;;;;28.50;14.63;;;;;;;;;;5033108;28;20466;-52
2021/01/24 04:13:16;;;;;;;25.33;14.50;;;;;;;;;;5041645;28;20491;-49
2021/01/24 04:15:42;;;;;;;24.42;13.82;;;;;;;;;;5039602;28;20032;-50
2021/01/24 04:18:08;;;;;;;28.90;15.05;;;;;;;;;;5036401;28;20029;-52
2021/01/24 04:20:34;;;;;;;26.55;13.60;;;;;;;;;;5042225;28;20456;-54
2021/01/24 04:23:00;;;;;;;24.50;13.45;;;;;;;;;;5038337;28;20839;-50
2021/01/24 04:25:26;;;;;;;22.83;13.45;;;;;;;;;;5038701;28;20036;-52
2021/01/24 04:27:52;;;;;;;25.73;13.68;;;;;;;;;;5030980;28;20079;-52
2021/01/24 04:30:18;;;;;;;26.70;14.18;;;;;;;;;;5047439;28;20037;-49
2021/01/24 04:32:44;;;;;;;24.30;12.98;;;;;;;;;;5030270;28;20043;-53
2021/01/24 04:35:10;;;;;;;23.63;12.73;;;;;;;;;;5042357;28;20033;-52
2021/01/24 04:37:36;;;;;;;26.40;14.57;;;;;;;;;;5039979;28;20096;-51
2021/01/24 04:40:02;;;;;;;25.90;13.52;;;;;;;;;;5042631;28;20036;-50
2021/01/24 04:42:29;;;;;;;26.25;13.80;;;;;;;;;;5036278;28;20040;-52
2021/01/24 04:44:55;;;;;;;24.90;12.38;;;;;;;;;;5036917;28;20035;-50
2021/01/24 04:47:22;;;;;;;23.52;12.68;;;;;;;;;;5034593;28;20109;-53
2021/01/24 04:49:48;;;;;;;22.42;12.52;;;;;;;;;;5042183;28;20029;-50
2021/01/24 04:52:15;;;;;;;23.10;12.80;;;;;;;;;;5036970;28;20098;-50
2021/01/24 04:54:42;;;;;;;27.10;13.98;;;;;;;;;;5032575;28;20025;-52
2021/01/24 04:57:10;;;;;;;27.50;13.40;;;;;;;;;;5029255;28;20515;-49
2021/01/24 04:59:36;;;;;;;23.77;13.20;;;;;;;;;;5036963;28;20392;-55
2021/01/24 05:02:02;;;;;;;23.77;13.77;;;;;;;;;;5037507;28;20041;-52
2021/01/24 05:04:29;;;;;;;28.23;12.45;;;;;;;;;;5035616;28;20033;-49
2021/01/24 05:06:55;;;;;;;22.95;13.05;;;;;;;;;;5035804;28;20040;-49
2021/01/24 05:09:21;;;;;;;23.73;12.60;;;;;;;;;;5037637;28;20033;-52
2021/01/24 05:11:51;;;;;;;22.00;12.18;;;;;;;;;;5037881;28;20071;-49
2021/01/24 05:14:18;;;;;;;20.35;11.60;;;;;;;;;;5036679;28;20440;-49
2021/01/24 05:16:44;;;;;;;24.65;11.90;;;;;;;;;;5043818;28;20029;-50
2021/01/24 05:19:11;;;;;;;21.40;11.02;;;;;;;;;;5037398;28;20368;-48
2021/01/24 05:21:37;;;;;;;22.73;12.18;;;;;;;;;;5035044;28;20208;-50
2021/01/24 05:24:04;;;;;;;21.63;12.27;;;;;;;;;;5037761;28;20112;-52
2021/01/24 05:26:30;;;;;;;20.52;11.80;;;;;;;;;;5035324;28;20036;-50
2021/01/24 05:28:55;;;;;;;23.63;12.00;;;;;;;;;;5045205;28;20372;-49
2021/01/24 05:31:22;;;;;;;23.58;12.10;;;;;;;;;;5037669;28;20044;-55
2021/01/24 05:33:48;;;;;;;22.40;11.68;;;;;;;;;;5034215;28;20044;-53
2021/01/24 05:36:14;;;;;;;22.50;12.25;;;;;;;;;;5029431;28;20060;-49
2021/01/24 05:38:40;;;;;;;22.17;12.13;;;;;;;;;;5044993;28;20045;-53
2021/01/24 05:41:07;;;;;;;19.52;11.50;;;;;;;;;;5039977;28;20527;-54
2021/01/24 05:43:35;;;;;;;21.40;11.23;;;;;;;;;;5029517;28;20080;-49
2021/01/24 05:46:01;;;;;;;18.92;10.50;;;;;;;;;;5034856;28;20473;-50
2021/01/24 05:48:28;;;;;;;19.55;10.85;;;;;;;;;;5041304;28;20036;-50
2021/01/24 05:50:54;;;;;;;17.27;10.52;;;;;;;;;;5042032;28;20385;-49
2021/01/24 05:53:20;;;;;;;17.55;9.25;;;;;;;;;;5045717;28;20040;-49
2021/01/24 05:55:46;;;;;;;16.23;8.70;;;;;;;;;;5037041;28;20034;-49
2021/01/24 05:58:22;;;;;;;17.85;9.35;;;;;;;;;;5037377;28;20512;-50
2021/01/24 06:00:52;;;;;;;14.18;8.10;;;;;;;;;;5041423;28;20135;-51
2021/01/24 06:03:18;;;;;;;15.68;8.35;;;;;;;;;;5033538;28;20044;-51
2021/01/24 06:05:45;;;;;;;13.43;7.38;;;;;;;;;;5040616;28;20429;-51
2021/01/24 06:08:11;;;;;;;14.57;7.25;;;;;;;;;;5036993;28;20469;-49
2021/01/24 06:10:38;;;;;;;15.32;7.47;;;;;;;;;;5038937;28;21471;-52
2021/01/24 06:13:05;;;;;;;12.55;6.70;;;;;;;;;;5038353;28;20033;-49
2021/01/24 06:15:32;;;;;;;16.38;6.97;;;;;;;;;;5039497;28;20044;-50
2021/01/24 06:18:00;;;;;;;13.57;7.32;;;;;;;;;;5038082;28;20060;-51
2021/01/24 06:20:34;;;;;;;15.60;8.18;;;;;;;;;;5044734;28;20095;-51
2021/01/24 06:23:12;;;;;;;13.50;7.50;;;;;;;;;;5049218;28;20033;-52
2021/01/24 06:25:46;;;;;;;14.55;7.00;;;;;;;;;;5048137;28;20029;-49
2021/01/24 06:28:19;;;;;;;13.27;7.72;;;;;;;;;;5037013;28;20455;-49
2021/01/24 06:30:45;;;;;;;;;;;;;;;;;;5044160;28;20033;-53
2021/01/24 06:33:15;;;;;;;11.25;6.28;;;;;;;;;;5035379;28;20625;-50
2021/01/24 06:35:45;;;;;;;12.93;6.72;;;;;;;;;;5039570;28;20029;-49
2021/01/24 06:38:25;;;;;;;11.90;6.78;;;;;;;;;;5035270;28;20503;-50
2021/01/24 06:40:51;;;;;;;14.65;7.15;;;;;;;;;;5034011;28;20017;-50
2021/01/24 06:43:31;;;;;;;13.85;7.43;;;;;;;;;;5044697;28;20033;-51
2021/01/24 06:45:57;;;;;;;12.02;6.80;;;;;;;;;;5038600;28;20511;-52
2021/01/24 06:48:39;;;;;;;12.95;6.47;;;;;;;;;;5043324;28;20096;-52
2021/01/24 06:51:25;;;;;;;13.80;6.38;;;;;;;;;;5034241;28;20038;-52
2021/01/24 06:53:51;;;;;;;11.75;6.05;;;;;;;;;;5043562;28;20041;-50
2021/01/24 06:56:17;;;;;;;11.85;6.65;;;;;;;;;;5034818;28;20025;-49
2021/01/24 06:58:50;;;;;;;10.27;5.75;;;;;;;;;;5037038;28;20021;-52
2021/01/24 07:01:29;;;;;;;9.55;5.30;;;;;;;;;;5042399;28;20392;-50
2021/01/24 07:04:13;;;;;;;13.35;6.55;;;;;;;;;;5047427;28;20037;-50
2021/01/24 07:06:40;;;;;;;11.52;6.38;;;;;;;;;;5036339;28;20051;-51
2021/01/24 07:09:27;;;;;;;10.90;5.72;;;;;;;;;;5038781;28;20025;-49
2021/01/24 07:11:54;;;;;;;12.23;6.03;;;;;;;;;;5035893;28;20921;-50
2021/01/24 07:14:35;;;;;;;8.40;5.00;;;;;;;;;;5039320;28;20033;-50
2021/01/24 07:17:01;;;;;;;9.82;5.70;;;;;;;;;;5037729;28;20029;-51
2021/01/24 07:19:28;;;;;;;11.65;5.55;;;;;;;;;;5036079;28;20026;-49
2021/01/24 07:21:54;;;;;;;10.68;5.82;;;;;;;;;;5038543;28;20048;-51
2021/01/24 07:24:20;;;;;;;11.95;5.70;;;;;;;;;;5039851;28;20086;-51
2021/01/24 07:26:47;;;;;;;8.82;4.97;;;;;;;;;;5034864;28;20033;-49
2021/01/24 07:29:14;;;;;;;8.65;4.97;;;;;;;;;;5040546;28;20029;-51
2021/01/24 07:31:40;;;;;;;12.48;5.05;;;;;;;;;;5042585;28;20049;-52
2021/01/24 07:34:07;;;;;;;10.07;5.05;;;;;;;;;;5046397;28;20453;-54
2021/01/24 07:36:33;;;;;;;9.77;5.10;;;;;;;;;;5045768;28;20556;-50
2021/01/24 07:39:00;;;;;;;9.02;4.90;;;;;;;;;;5035759;28;20026;-51
2021/01/24 07:41:26;;;;;;;9.45;5.07;;;;;;;;;;5044791;28;20151;-54
2021/01/24 07:43:52;;;;;;;8.05;4.75;;;;;;;;;;5037590;28;20417;-51
2021/01/24 07:46:20;;;;;;;10.02;5.25;;;;;;;;;;5037617;28;20040;-52
2021/01/24 07:48:46;;;;;;;7.90;4.53;;;;;;;;;;5036098;28;20048;-52
2021/01/24 07:51:12;;;;;;;9.60;4.93;;;;;;;;;;5045014;28;20062;-53
2021/01/24 07:53:38;;;;;;;8.25;4.43;;;;;;;;;;5036227;28;20041;-52
2021/01/24 07:56:05;;;;;;;7.35;4.72;;;;;;;;;;5041132;28;20021;-50
2021/01/24 07:58:30;;;;;;;8.68;5.05;;;;;;;;;;5044110;28;20032;-49
2021/01/24 08:00:56;;;;;;;11.70;6.32;;;;;;;;;;5035294;28;20052;-49
2021/01/24 08:03:22;;;;;;;17.83;11.50;;;;;;;;;;5039158;28;20038;-54
2021/01/24 08:05:48;;;;;;;11.07;6.47;;;;;;;;;;5035418;28;20040;-53
2021/01/24 08:08:14;;;;;;;12.20;8.25;;;;;;;;;;5040731;28;20033;-52
2021/01/24 08:10:40;;;;;;;14.30;7.00;;;;;;;;;;5039736;28;20016;-53
2021/01/24 08:13:06;;;;;;;10.32;5.53;;;;;;;;;;5039771;28;20434;-49
2021/01/24 08:15:33;;;;;;;12.63;5.40;;;;;;;;;;5043977;28;20025;-52
2021/01/24 08:18:00;;;;;;;13.15;5.25;;;;;;;;;;5039128;28;20029;-51
2021/01/24 08:20:28;;;;;;;13.25;4.93;;;;;;;;;;5045502;28;20674;-53
2021/01/24 08:22:54;;;;;;;11.93;5.80;;;;;;;;;;5044290;28;20173;-51
2021/01/24 08:25:20;;;;;;;45.55;26.30;;;;;;;;;;5041556;28;20051;-50
2021/01/24 08:27:47;;;;;;;22.30;13.38;;;;;;;;;;5035949;28;20051;-50
2021/01/24 08:30:14;;;;;;;14.45;8.00;;;;;;;;;;5039009;28;20045;-50
2021/01/24 08:32:41;;;;;;;55.85;37.50;;;;;;;;;;5035794;28;20064;-53
2021/01/24 08:35:07;;;;;;;26.98;18.58;;;;;;;;;;5043625;28;20033;-51
2021/01/24 08:37:33;;;;;;;30.13;15.98;;;;;;;;;;5039827;28;20480;-53
2021/01/24 08:39:59;;;;;;;9.82;5.63;;;;;;;;;;5036015;28;20029;-53
2021/01/24 08:42:25;;;;;;;7.38;4.18;;;;;;;;;;5040593;28;20389;-53
2021/01/24 08:44:58;;;;;;;8.60;3.97;;;;;;;;;;5041508;28;20029;-50
2021/01/24 08:47:24;;;;;;;8.70;4.50;;;;;;;;;;5040975;28;20078;-49
2021/01/24 08:50:02;;;;;;;7.00;3.50;;;;;;;;;;5042328;28;20431;-51
2021/01/24 08:52:28;;;;;;;9.73;3.80;;;;;;;;;;5036944;28;20030;-50
2021/01/24 08:55:00;;;;;;;6.50;3.38;;;;;;;;;;5041851;28;20039;-51
2021/01/24 08:57:31;;;;;;;9.88;4.18;;;;;;;;;;5039846;28;20013;-49
2021/01/24 08:59:58;;;;;;;8.52;4.13;;;;;;;;;;5043847;28;20451;-49
2021/01/24 09:02:31;;;;;;;6.68;3.67;;;;;;;;;;5035469;28;20551;-55
2021/01/24 09:04:57;;;;;;;7.32;3.50;;;;;;;;;;5044595;28;20044;-53
2021/01/24 09:07:23;;;;;;;8.50;3.65;;;;;;;;;;5039129;28;20095;-54
2021/01/24 09:09:52;;;;;;;5.13;4.03;;;;;;;;;;5034013;28;20530;-49
2021/01/24 09:12:19;;;;;;;9.95;3.97;;;;;;;;;;5046049;28;20073;-51
2021/01/24 09:14:46;;;;;;;8.93;4.22;;;;;;;;;;5039352;28;20624;-50
2021/01/24 09:17:13;;;;;;;6.60;3.63;;;;;;;;;;5042379;28;20112;-50
2021/01/24 09:19:40;;;;;;;9.18;3.75;;;;;;;;;;5034886;28;20061;-51
2021/01/24 09:22:07;;;;;;;6.07;3.58;;;;;;;;;;5042630;28;20028;-54
2021/01/24 09:24:33;;;;;;;7.30;3.95;;;;;;;;;;5042865;28;20380;-50
2021/01/24 09:26:59;;;;;;;7.05;3.55;;;;;;;;;;5044891;28;20049;-52
2021/01/24 09:29:25;;;;;;;7.05;4.38;;;;;;;;;;5048355;28;20040;-53
2021/01/24 09:31:51;;;;;;;7.57;4.90;;;;;;;;;;5045309;28;20524;-53
2021/01/24 09:34:17;;;;;;;9.40;3.97;;;;;;;;;;5049116;28;20037;-52
2021/01/24 09:36:43;;;;;;;8.25;3.70;;;;;;;;;;5049261;28;20040;-51
2021/01/24 09:39:09;;;;;;;8.38;3.63;;;;;;;;;;5049948;28;20021;-51
2021/01/24 09:41:35;;;;;;;6.55;4.00;;;;;;;;;;5047966;28;20064;-54
2021/01/24 09:44:02;;;;;;;10.75;4.47;;;;;;;;;;5042112;28;20033;-50
2021/01/24 09:46:28;;;;;;;7.05;3.65;;;;;;;;;;5047891;28;20021;-50
2021/01/24 09:48:54;;;;;;;8.77;4.20;;;;;;;;;;5049134;28;20082;-54
2021/01/24 09:51:20;;;;;;;7.10;4.00;;;;;;;;;;5049774;28;20025;-52
2021/01/24 09:53:50;;;;;;;8.82;3.95;;;;;;;;;;5048598;28;20033;-50
2021/01/24 09:56:16;;;;;;;7.90;3.95;;;;;;;;;;5038990;28;20021;-49
2021/01/24 09:58:42;;;;;;;8.57;4.60;;;;;;;;;;5040789;28;20420;-52
2021/01/24 10:01:08;;;;;;;8.85;3.67;;;;;;;;;;5049329;28;20028;-52
2021/01/24 10:03:34;;;;;;;8.50;4.72;;;;;;;;;;5046798;28;20032;-52
2021/01/24 10:06:00;;;;;;;9.43;4.53;;;;;;;;;;5040612;28;20392;-51
2021/01/24 10:08:26;;;;;;;6.25;4.10;;;;;;;;;;5043459;28;20146;-50
2021/01/24 10:10:52;;;;;;;7.63;5.03;;;;;;;;;;5044141;28;20063;-50
2021/01/24 10:13:18;;;;;;;9.73;5.00;;;;;;;;;;5042639;28;20463;-50
2021/01/24 10:15:48;;;;;;;9.43;4.80;;;;;;;;;;5039702;28;20264;-50
2021/01/24 10:18:15;;;;;;;9.15;4.60;;;;;;;;;;5042788;28;20685;-48
2021/01/24 10:20:41;;;;;;;10.30;4.70;;;;;;;;;;5040413;28;20029;-50
2021/01/24 10:23:06;;;;;;;8.85;4.70;;;;;;;;;;5041679;28;20029;-50
2021/01/24 10:25:33;;;;;;;9.57;4.60;;;;;;;;;;5040545;28;20051;-49
2021/01/24 10:27:59;;;;;;;9.07;4.75;;;;;;;;;;5045320;28;20117;-49
2021/01/24 10:30:25;;;;;;;8.60;4.47;;;;;;;;;;5043440;28;20028;-49
2021/01/24 10:32:50;;;;;;;9.05;4.68;;;;;;;;;;5045733;28;20047;-49
2021/01/24 10:35:16;;;;;;;8.35;4.43;;;;;;;;;;5045780;28;20025;-52
2021/01/24 10:37:42;;;;;;;8.07;3.97;;;;;;;;;;5047107;28;20021;-49
2021/01/24 10:40:09;;;;;;;7.72;4.32;;;;;;;;;;5047666;28;20025;-49
2021/01/24 10:42:37;;;;;;;11.82;4.72;;;;;;;;;;5042927;28;20124;-51
2021/01/24 10:45:03;;;;;;;6.68;4.15;;;;;;;;;;5040409;28;20937;-49
2021/01/24 10:47:30;;;;;;;8.70;4.70;;;;;;;;;;5044770;28;20036;-53
2021/01/24 10:49:56;;;;;;;9.45;4.07;;;;;;;;;;5044766;28;20029;-48
2021/01/24 10:52:22;;;;;;;11.00;8.55;;;;;;;;;;5036839;28;20107;-48
2021/01/24 10:54:48;;;;;;;9.32;6.28;;;;;;;;;;5041156;28;20025;-51
2021/01/24 10:57:14;;;;;;;8.45;4.45;;;;;;;;;;5040516;28;20079;-50
2021/01/24 10:59:40;;;;;;;8.43;7.50;;;;;;;;;;5046739;28;20029;-48
2021/01/24 11:02:06;;;;;;;6.90;4.18;;;;;;;;;;5039608;28;20025;-48
2021/01/24 11:04:32;;;;;;;10.10;4.38;;;;;;;;;;5040673;28;20147;-48
2021/01/24 11:07:00;;;;;;;9.48;4.57;;;;;;;;;;5043528;28;20029;-51
2021/01/24 11:09:26;;;;;;;7.38;4.05;;;;;;;;;;5043110;28;20028;-50
2021/01/24 11:11:52;;;;;;;27.95;18.73;;;;;;;;;;5042749;28;20033;-52
2021/01/24 11:14:18;;;;;;;7.50;4.70;;;;;;;;;;5044523;28;20432;-49
2021/01/24 11:16:44;;;;;;;5.40;2.88;;;;;;;;;;5038162;28;20040;-53
2021/01/24 11:19:10;;;;;;;4.68;2.85;;;;;;;;;;5045480;28;20044;-51
2021/01/24 11:21:36;;;;;;;6.15;3.60;;;;;;;;;;5043665;28;20029;-50
2021/01/24 11:24:02;;;;;;;4.43;2.67;;;;;;;;;;5047075;28;20032;-50
2021/01/24 11:26:28;;;;;;;3.45;2.42;;;;;;;;;;5042072;28;20029;-51
2021/01/24 11:28:54;;;;;;;4.63;3.13;;;;;;;;;;5047414;28;20029;-55
2021/01/24 11:31:20;;;;;;;5.50;2.80;;;;;;;;;;5041713;28;20412;-51
2021/01/24 11:33:46;;;;;;;3.28;2.15;;;;;;;;;;5037407;28;20029;-49
2021/01/24 11:36:12;;;;;;;4.75;2.67;;;;;;;;;;5035504;28;20025;-52
2021/01/24 11:38:39;;;;;;;3.65;2.15;;;;;;;;;;5045744;28;20033;-49
2021/01/24 11:41:05;;;;;;;3.80;2.30;;;;;;;;;;5045290;28;20039;-53
2021/01/24 11:43:31;;;;;;;5.28;2.50;;;;;;;;;;5042914;28;20035;-50
2021/01/24 11:45:57;;;;;;;3.55;2.40;;;;;;;;;;5045141;28;20044;-53
2021/01/24 11:48:23;;;;;;;4.88;2.40;;;;;;;;;;5035697;28;20036;-50
2021/01/24 11:50:50;;;;;;;4.50;2.42;;;;;;;;;;5046779;28;20056;-54
2021/01/24 11:53:17;;;;;;;3.70;2.53;;;;;;;;;;5045366;28;20033;-48
2021/01/24 11:55:43;;;;;;;4.50;2.05;;;;;;;;;;5041487;28;20298;-51
2021/01/24 11:58:09;;;;;;;2.60;1.90;;;;;;;;;;5044929;28;20108;-51
2021/01/24 12:00:35;;;;;;;3.88;2.17;;;;;;;;;;5045824;28;20155;-51
2021/01/24 12:03:01;;;;;;;3.05;2.15;;;;;;;;;;5044793;28;20033;-53
2021/01/24 12:05:27;;;;;;;4.28;2.45;;;;;;;;;;5045588;28;20040;-49
2021/01/24 12:07:53;;;;;;;3.42;2.40;;;;;;;;;;5046448;28;20024;-50
2021/01/24 12:10:19;;;;;;;3.50;2.40;;;;;;;;;;5033029;28;20041;-49
2021/01/24 12:12:45;;;;;;;5.75;2.88;;;;;;;;;;5045112;28;20404;-53
2021/01/24 12:15:11;;;;;;;6.75;3.58;;;;;;;;;;5044477;28;20453;-53
2021/01/24 12:17:37;;;;;;;4.43;2.22;;;;;;;;;;5040560;28;20029;-51
2021/01/24 12:20:03;;;;;;;3.70;2.70;;;;;;;;;;5045364;28;20032;-51
2021/01/24 12:22:29;;;;;;;4.22;2.42;;;;;;;;;;5046025;28;20470;-51
2021/01/24 12:24:55;;;;;;;5.00;2.65;;;;;;;;;;5042504;28;20033;-53
2021/01/24 12:27:21;;;;;;;8.15;2.88;;;;;;;;;;5044199;28;20028;-49
2021/01/24 12:29:47;;;;;;;5.25;2.92;;;;;;;;;;5043479;28;20720;-50
2021/01/24 12:32:13;;;;;;;5.82;3.78;;;;;;;;;;5040600;28;20068;-52
2021/01/24 12:34:39;;;;;;;5.50;3.42;;;;;;;;;;5041374;28;20361;-53
2021/01/24 12:37:05;;;;;;;6.88;3.95;;;;;;;;;;5042125;28;20025;-51
2021/01/24 12:39:31;;;;;;;6.63;3.50;;;;;;;;;;5044446;28;20352;-50
2021/01/24 12:41:57;;;;;;;6.15;4.13;;;;;;;;;;5036632;28;20059;-50
2021/01/24 12:44:23;;;;;;;5.00;3.50;;;;;;;;;;5045017;28;20028;-49
2021/01/24 12:46:49;;;;;;;5.45;3.63;;;;;;;;;;5040660;28;20045;-51
2021/01/24 12:49:15;;;;;;;6.05;3.80;;;;;;;;;;5044243;28;20021;-49
2021/01/24 12:51:41;;;;;;;6.35;3.90;;;;;;;;;;5044485;28;20083;-50
2021/01/24 12:54:07;;;;;;;4.22;3.50;;;;;;;;;;5045341;28;20688;-49
2021/01/24 12:56:33;;;;;;;5.80;3.72;;;;;;;;;;5044512;28;20017;-50
2021/01/24 12:58:59;;;;;;;6.93;3.65;;;;;;;;;;5044819;28;20033;-52
2021/01/24 13:01:25;;;;;;;8.38;4.50;;;;;;;;;;5041573;28;20452;-49
2021/01/24 13:03:51;;;;;;;5.05;3.60;;;;;;;;;;5044139;28;20028;-51
2021/01/24 13:06:17;;;;;;;6.05;3.60;;;;;;;;;;5045143;28;20527;-51
2021/01/24 13:08:43;;;;;;;5.65;3.75;;;;;;;;;;5043363;28;20028;-50
2021/01/24 13:11:09;;;;;;;7.15;4.43;;;;;;;;;;5041641;28;20036;-49
2021/01/24 13:13:35;;;;;;;5.20;3.35;;;;;;;;;;5035023;28;20025;-51
2021/01/24 13:16:01;;;;;;;4.82;3.70;;;;;;;;;;5041486;28;20033;-50
2021/01/24 13:18:27;;;;;;;5.18;3.30;;;;;;;;;;5044366;28;20025;-50
2021/01/24 13:20:53;;;;;;;6.05;4.10;;;;;;;;;;5041038;28;20044;-53
2021/01/24 13:23:19;;;;;;;4.93;3.85;;;;;;;;;;5041234;28;20025;-51
2021/01/24 13:25:45;;;;;;;5.97;4.07;;;;;;;;;;5039560;28;20021;-52
2021/01/24 13:28:11;;;;;;;4.53;3.30;;;;;;;;;;5039098;28;20413;-50
2021/01/24 13:30:37;;;;;;;7.13;4.30;;;;;;;;;;5040974;28;20025;-50
2021/01/24 13:33:03;;;;;;;6.43;4.25;;;;;;;;;;5034603;28;20041;-49
2021/01/24 13:35:29;;;;;;;7.43;4.22;;;;;;;;;;5040055;28;20083;-49
2021/01/24 13:37:54;;;;;;;6.47;4.03;;;;;;;;;;5043591;28;20040;-52
2021/01/24 13:40:20;;;;;;;7.20;4.10;;;;;;;;;;5044283;28;20032;-52
2021/01/24 13:42:46;;;;;;;6.13;3.83;;;;;;;;;;5045405;28;20059;-50
2021/01/24 13:45:13;;;;;;;6.60;4.00;;;;;;;;;;5045627;28;20039;-48
2021/01/24 13:47:39;;;;;;;6.50;4.55;;;;;;;;;;5045108;28;20078;-51
2021/01/24 13:50:05;;;;;;;6.85;4.43;;;;;;;;;;5045306;28;20060;-49
2021/01/24 13:52:31;;;;;;;8.00;4.40;;;;;;;;;;5043933;28;20033;-53
2021/01/24 13:54:57;;;;;;;5.97;4.35;;;;;;;;;;5045231;28;20033;-49
2021/01/24 13:57:23;;;;;;;6.45;4.13;;;;;;;;;;5030969;28;20477;-53
2021/01/24 13:59:49;;;;;;;7.68;4.35;;;;;;;;;;5043260;28;20021;-48
2021/01/24 14:02:15;;;;;;;5.55;3.78;;;;;;;;;;5044095;28;20041;-49
2021/01/24 14:04:43;;;;;;;6.28;4.00;;;;;;;;;;5045133;28;20036;-51
2021/01/24 14:07:09;;;;;;;7.60;4.38;;;;;;;;;;5044703;28;20056;-48
2021/01/24 14:09:35;;;;;;;6.35;4.10;;;;;;;;;;5044226;28;22665;-50
2021/01/24 14:12:01;;;;;;;6.03;3.70;;;;;;;;;;5044521;28;20029;-53
2021/01/24 14:14:27;;;;;;;5.88;4.13;;;;;;;;;;5048471;28;20032;-51
2021/01/24 14:16:53;;;;;;;6.53;4.50;;;;;;;;;;5047481;28;20029;-53
2021/01/24 14:19:19;;;;;;;6.47;4.53;;;;;;;;;;5042756;28;20032;-52
2021/01/24 14:21:45;;;;;;;7.68;5.28;;;;;;;;;;5044325;28;20804;-53
2021/01/24 14:24:11;;;;;;;7.30;5.30;;;;;;;;;;5046460;28;20518;-51
2021/01/24 14:26:37;;;;;;;8.98;5.72;;;;;;;;;;5040839;28;20072;-49
2021/01/24 14:29:03;;;;;;;10.10;6.18;;;;;;;;;;5048900;28;20453;-49